Time;durP1;ratioP1;P1;durP2;ratioP2;P2;SDS_P1;SDS_P2;PMS_P1;PMS_P2;Temp;Humidity;BMP_temperature;BMP_pressure;BME280_temperature;BME280_humidity;BME280_pressure;Samples;Min_cycle;Max_cycle;Signal;HPM_P1;HPM_P2
2023/10/12 00:02:12;;;;;;;13.25;2.55;;;;;;;-144.73;100.00;54612.97;4973642;28;20014;-72
2023/10/12 00:04:43;;;;;;;15.55;2.95;;;;;;;-144.73;100.00;54645.78;4972646;28;20018;-71
2023/10/12 00:09:38;;;;;;;33.92;4.60;;;;;;;-144.73;100.00;54567.81;4990579;28;20048;-72
2023/10/12 00:12:07;;;;;;;9.90;2.47;;;;;;;-144.73;100.00;54588.31;4989745;28;20124;-72
2023/10/12 00:14:34;;;;;;;37.40;3.72;;;;;;;-144.73;100.00;54617.06;4973616;28;20164;-72
2023/10/12 00:16:59;;;;;;;39.63;3.42;;;;;;;-144.73;100.00;54576.00;4973263;28;20160;-70
2023/10/12 00:19:25;;;;;;;23.88;3.72;;;;;;;-144.73;100.00;54629.38;4973546;28;20109;-71
2023/10/12 00:22:00;;;;;;;54.67;4.07;;;;;;;-144.73;100.00;54596.53;4989514;28;20038;-71
2023/10/12 00:24:30;;;;;;;17.55;2.78;;;;;;;-144.73;100.00;54625.28;4972650;28;20026;-72
2023/10/12 00:26:58;;;;;;;31.08;4.32;;;;;;;-144.73;100.00;54596.53;4972848;28;20022;-73
2023/10/12 00:29:23;;;;;;;30.65;4.43;;;;;;;-144.73;100.00;54641.69;4972887;28;20030;-73
2023/10/12 00:31:49;;;;;;;34.60;4.20;;;;;;;-144.73;100.00;54604.75;4989970;28;20022;-73
2023/10/12 00:34:16;;;;;;;44.45;4.97;;;;;;;-144.73;100.00;54606.78;4972868;28;20018;-72
2023/10/12 00:36:41;;;;;;;21.92;3.40;;;;;;;-144.73;100.00;54633.47;4972913;28;20037;-73
2023/10/12 00:39:11;;;;;;;37.33;3.95;;;;;;;-144.73;100.00;54617.06;5045545;28;20081;-73
2023/10/12 00:41:38;;;;;;;24.25;3.97;;;;;;;-144.73;100.00;54588.31;5071876;28;20037;-73
2023/10/12 00:49:19;;;;;;;40.17;5.28;;;;;;;-144.73;100.00;54576.00;5072061;28;20107;-72
2023/10/12 00:51:51;;;;;;;25.25;4.00;;;;;;;-144.73;100.00;54629.38;5054519;28;20033;-71
2023/10/12 00:54:26;;;;;;;27.42;3.95;;;;;;;-144.73;100.00;54592.44;5054415;28;20024;-71
2023/10/12 00:56:55;;;;;;;33.83;5.25;;;;;;;-144.73;100.00;54637.59;5058150;28;20033;-71
2023/10/12 00:59:21;;;;;;;31.83;3.95;;;;;;;-144.73;100.00;54608.84;5063129;28;20016;-71
2023/10/12 01:01:49;;;;;;;32.25;4.30;;;;;;;-144.73;100.00;54559.59;5072148;28;20084;-70
2023/10/12 01:04:16;;;;;;;42.70;4.68;;;;;;;-144.73;100.00;54617.06;5069131;28;20086;-71
2023/10/12 01:06:47;;;;;;;29.13;4.95;;;;;;;-144.73;100.00;54600.63;5051929;28;20039;-71
2023/10/12 01:09:19;;;;;;;44.30;6.25;;;;;;;-144.73;100.00;54610.91;5052185;28;20029;-71
2023/10/12 01:11:55;;;;;;;36.53;5.85;;;;;;;-144.73;100.00;54633.47;5033538;28;20053;-71
2023/10/12 01:14:26;;;;;;;36.38;5.13;;;;;;;-144.73;100.00;54580.13;5052271;28;20032;-71
2023/10/12 01:19:22;;;;;;;38.90;5.45;;;;;;;-144.73;100.00;54600.63;5051680;28;20013;-71
2023/10/12 01:22:04;;;;;;;21.63;3.83;;;;;;;-144.73;100.00;54586.28;5033646;28;20063;-71
2023/10/12 01:24:32;;;;;;;;;;;;;;;-144.73;100.00;54637.59;5059261;28;20044;-71
2023/10/12 01:26:58;;;;;;;23.42;3.25;;;;;;;-144.73;100.00;54576.00;5058003;28;19908;-71
2023/10/12 01:29:25;;;;;;;23.30;3.78;;;;;;;-144.73;100.00;54629.38;5057119;28;20027;-70
2023/10/12 01:34:36;;;;;;;30.13;4.45;;;;;;;-144.73;100.00;54584.22;5075390;28;20043;-71
2023/10/12 01:37:11;;;;;;;30.27;4.22;;;;;;;-144.73;100.00;54580.13;5056803;28;20547;-72
2023/10/12 01:39:40;;;;;;;28.73;4.55;;;;;;;-144.73;100.00;54604.75;4975528;28;20018;-73
2023/10/12 01:42:06;;;;;;;29.67;4.25;;;;;;;-144.73;100.00;54584.22;4975634;28;20124;-73
2023/10/12 01:44:32;;;;;;;24.80;4.93;;;;;;;-144.73;100.00;54588.31;4975394;28;20046;-73
2023/10/12 01:46:58;;;;;;;36.53;5.00;;;;;;;-144.73;100.00;54615.00;4985508;28;20050;-73
2023/10/12 01:49:23;;;;;;;32.40;4.25;;;;;;;-144.73;100.00;54596.53;5040749;28;20030;-73
2023/10/12 01:51:49;;;;;;;26.02;4.70;;;;;;;-144.73;100.00;54612.97;5040768;28;20027;-74
2023/10/12 01:54:24;;;;;;;23.45;3.95;;;;;;;-144.73;100.00;54576.00;5041057;28;20027;-73
2023/10/12 01:56:53;;;;;;;32.13;3.88;;;;;;;-144.73;100.00;54596.53;4973623;28;20026;-74
2023/10/12 01:59:22;;;;;;;39.20;4.75;;;;;;;-144.73;100.00;54580.13;4982716;28;20021;-74
2023/10/12 02:01:53;;;;;;;46.40;5.15;;;;;;;-144.73;100.00;54621.16;4974343;28;20031;-74
2023/10/12 02:04:21;;;;;;;37.05;5.07;;;;;;;-144.73;100.00;54588.31;5009410;28;20037;-74
2023/10/12 02:06:47;;;;;;;35.33;4.45;;;;;;;-144.73;100.00;54559.59;4993470;28;20423;-74
2023/10/12 02:09:15;;;;;;;29.80;4.43;;;;;;;-144.73;100.00;54592.44;4973597;28;20030;-75
2023/10/12 02:11:45;;;;;;;35.67;4.43;;;;;;;-144.73;100.00;54580.13;4975785;28;20027;-76
2023/10/12 02:14:12;;;;;;;29.60;3.65;;;;;;;-144.73;100.00;54563.69;4972410;28;20022;-78
2023/10/12 02:16:39;;;;;;;26.45;4.22;;;;;;;-144.73;100.00;54586.28;5016989;28;20041;-76
2023/10/12 02:19:08;;;;;;;30.23;4.35;;;;;;;-144.73;100.00;54621.16;4971265;28;20026;-78
2023/10/12 02:21:37;;;;;;;35.95;4.97;;;;;;;-144.73;100.00;54600.63;4986966;28;20041;-78
2023/10/12 02:26:34;;;;;;;26.08;3.72;;;;;;;-144.73;100.00;54604.75;4991707;28;20080;-79
2023/10/12 02:29:11;;;;;;;29.00;4.22;;;;;;;-144.73;100.00;54584.22;5006117;28;20057;-79
2023/10/12 02:34:19;;;;;;;36.95;5.00;;;;;;;-144.73;100.00;54592.44;4991772;28;20038;-76
2023/10/12 02:39:27;;;;;;;33.22;4.45;;;;;;;-144.73;100.00;54594.47;5070633;28;20029;-75
2023/10/12 02:42:12;;;;;;;40.80;4.85;;;;;;;-144.73;100.00;54543.16;5037060;28;20056;-75
2023/10/12 02:47:21;;;;;;;39.67;4.30;;;;;;;-144.73;100.00;54584.22;5066959;28;20217;-75
2023/10/12 02:49:47;;;;;;;29.17;5.05;;;;;;;-144.73;100.00;54576.00;5074848;28;20024;-75
2023/10/12 02:52:14;;;;;;;32.83;4.32;;;;;;;-144.73;100.00;54582.16;5067845;28;20566;-75
2023/10/12 02:54:50;;;;;;;27.75;3.72;;;;;;;-144.73;100.00;54578.06;5057097;28;20036;-75
2023/10/12 02:57:22;;;;;;;45.13;4.85;;;;;;;-144.73;100.00;54571.91;5056950;28;20028;-75
2023/10/12 02:59:56;;;;;;;30.15;4.55;;;;;;;-144.73;100.00;54567.81;5057274;28;20119;-74
2023/10/12 03:02:23;;;;;;;25.92;4.35;;;;;;;-144.73;100.00;54584.22;5074613;28;20020;-74
2023/10/12 03:04:49;;;;;;;38.05;5.10;;;;;;;-144.73;100.00;54604.75;5075000;28;20031;-74
2023/10/12 03:07:22;;;;;;;41.95;4.30;;;;;;;-144.73;100.00;54641.69;5056242;28;20032;-74
2023/10/12 03:09:56;;;;;;;35.03;5.18;;;;;;;-144.73;100.00;54629.38;5056179;28;20031;-75
2023/10/12 03:12:23;;;;;;;34.22;6.20;;;;;;;-144.73;100.00;54594.47;5049634;28;20048;-74
2023/10/12 03:14:52;;;;;;;32.53;4.57;;;;;;;-144.73;100.00;54623.22;5056830;28;20039;-74
2023/10/12 03:17:23;;;;;;;32.35;5.03;;;;;;;-144.73;100.00;54563.69;5056758;28;20027;-74
2023/10/12 03:19:55;;;;;;;29.58;3.90;;;;;;;-144.73;100.00;54637.59;5056561;28;20017;-74
2023/10/12 03:22:36;;;;;;;32.53;4.53;;;;;;;-144.73;100.00;54600.63;5056446;28;20029;-74
2023/10/12 03:25:19;;;;;;;34.47;4.30;;;;;;;-144.73;100.00;54596.53;5063453;28;20029;-74
2023/10/12 03:27:52;;;;;;;38.92;5.80;;;;;;;-144.73;100.00;54594.47;5036114;28;20043;-75
2023/10/12 03:30:18;;;;;;;35.28;4.53;;;;;;;-144.73;100.00;54592.44;5036486;28;20028;-74
2023/10/12 03:32:44;;;;;;;41.53;4.65;;;;;;;-144.73;100.00;54625.28;5036229;28;20024;-75
2023/10/12 03:35:22;;;;;;;36.70;5.38;;;;;;;-144.73;100.00;54596.53;5052713;28;20087;-74
2023/10/12 03:38:00;;;;;;;31.10;4.60;;;;;;;-144.73;100.00;54604.75;5027955;28;20034;-74
2023/10/12 03:43:20;;;;;;;42.17;4.85;;;;;;;-144.73;100.00;54600.63;4972051;28;20045;-73
2023/10/12 03:48:47;;;;;;;39.50;4.72;;;;;;;-144.73;100.00;54608.84;4972455;28;20035;-74
2023/10/12 03:51:25;;;;;;;32.75;4.95;;;;;;;-144.73;100.00;54584.22;4971862;28;20029;-74
2023/10/12 03:53:56;;;;;;;46.03;7.88;;;;;;;-144.73;100.00;54608.84;4971036;28;20161;-74
2023/10/12 03:56:28;;;;;;;44.40;5.25;;;;;;;-144.73;100.00;54631.44;4974471;28;20026;-74
2023/10/12 03:59:06;;;;;;;43.47;5.75;;;;;;;-144.73;100.00;54588.31;4972981;28;20015;-74
2023/10/12 04:01:31;;;;;;;45.30;5.55;;;;;;;-144.73;100.00;54602.69;4991519;28;20473;-74
2023/10/12 04:04:19;;;;;;;43.33;5.82;;;;;;;-144.73;100.00;54580.13;4974717;28;20029;-74
2023/10/12 04:09:31;;;;;;;33.03;5.25;;;;;;;-144.73;100.00;54608.84;4972248;28;20110;-74
2023/10/12 04:14:49;;;;;;;35.03;4.90;;;;;;;-144.73;100.00;54608.84;4970740;28;19914;-74
2023/10/12 04:20:16;;;;;;;24.67;3.47;;;;;;;-144.73;100.00;54621.16;4971874;28;20022;-74
2023/10/12 04:25:22;;;;;;;65.60;6.10;;;;;;;-144.73;100.00;54639.63;4971598;28;20026;-74
2023/10/12 04:27:51;;;;;;;40.33;5.20;;;;;;;-144.73;100.00;54571.91;4954562;28;20506;-74
2023/10/12 04:30:30;;;;;;;40.35;5.07;;;;;;;-144.73;100.00;54623.22;4954433;28;20102;-74
2023/10/12 04:33:12;;;;;;;37.15;4.40;;;;;;;-144.73;100.00;54639.63;4970991;28;20030;-73
2023/10/12 04:36:09;;;;;;;31.90;4.57;;;;;;;-144.73;100.00;54623.22;4970348;28;20030;-75
2023/10/12 04:43:53;;;;;;;32.78;4.85;;;;;;;-144.73;100.00;54615.00;4971662;28;20039;-73
2023/10/12 04:48:48;;;;;;;28.27;4.03;;;;;;;-144.73;100.00;54612.97;4990067;28;20042;-71
2023/10/12 04:51:21;;;;;;;39.78;5.38;;;;;;;-144.73;100.00;54600.63;4969911;28;20031;-73
2023/10/12 04:53:57;;;;;;;31.90;5.28;;;;;;;-144.73;100.00;54604.75;4971151;28;20114;-75
2023/10/12 04:56:26;;;;;;;33.10;4.88;;;;;;;-144.73;100.00;54600.63;4970589;28;20034;-71
2023/10/12 04:59:14;;;;;;;22.13;4.03;;;;;;;-144.73;100.00;54637.59;4954126;28;20030;-73
2023/10/12 05:02:01;;;;;;;35.95;5.32;;;;;;;-144.73;100.00;54588.31;4954220;28;20053;-73
2023/10/12 05:04:49;;;;;;;28.30;5.15;;;;;;;-144.73;100.00;54547.28;4970041;28;20058;-73
2023/10/12 05:09:49;;;;;;;29.73;5.20;;;;;;;-144.73;100.00;54629.38;4970920;28;20177;-73
2023/10/12 05:12:26;;;;;;;30.08;4.03;;;;;;;-144.73;100.00;54608.84;4987000;28;20034;-73
2023/10/12 05:14:55;;;;;;;38.45;5.15;;;;;;;-144.73;100.00;54633.47;4973402;28;20057;-72
2023/10/12 05:17:24;;;;;;;31.02;4.43;;;;;;;-144.73;100.00;54612.97;4989408;28;20026;-72
2023/10/12 05:19:52;;;;;;;30.73;4.78;;;;;;;-144.73;100.00;54608.84;4972887;28;20039;-73
2023/10/12 05:22:21;;;;;;;27.67;5.45;;;;;;;-144.73;100.00;54592.44;4971913;28;20029;-72
2023/10/12 05:24:46;;;;;;;42.95;6.53;;;;;;;-144.73;100.00;54658.13;4990191;28;20033;-72
2023/10/12 05:27:23;;;;;;;42.15;4.88;;;;;;;-144.73;100.00;54656.06;4972787;28;20022;-73
2023/10/12 05:29:59;;;;;;;29.35;5.72;;;;;;;-144.73;100.00;54629.38;4972769;28;20031;-72
2023/10/12 05:32:37;;;;;;;33.38;4.63;;;;;;;-144.73;100.00;54619.13;4989269;28;20039;-72
2023/10/12 05:35:06;;;;;;;35.28;4.53;;;;;;;-144.73;100.00;54647.84;4972970;28;20050;-73
2023/10/12 05:37:38;;;;;;;38.58;5.30;;;;;;;-144.73;100.00;54592.44;4972077;28;20083;-72
2023/10/12 05:40:10;;;;;;;34.55;4.28;;;;;;;-144.73;100.00;54596.53;4989905;28;20030;-72
2023/10/12 05:42:39;;;;;;;28.45;4.22;;;;;;;-144.73;100.00;54596.53;4973073;28;20030;-73
2023/10/12 05:47:44;;;;;;;34.13;5.00;;;;;;;-144.73;100.00;54617.06;4988715;28;20022;-73
2023/10/12 05:50:15;;;;;;;27.45;4.60;;;;;;;-144.73;100.00;54600.63;4953856;28;20022;-74
2023/10/12 05:52:40;;;;;;;20.35;4.25;;;;;;;-144.73;100.00;54549.31;4954927;28;20039;-73
2023/10/12 05:55:21;;;;;;;31.17;5.38;;;;;;;-144.73;100.00;54571.91;4953622;28;20029;-73
2023/10/12 05:57:49;;;;;;;35.55;4.85;;;;;;;-144.73;100.00;54588.31;4954574;28;20019;-74
2023/10/12 06:00:34;;;;;;;20.75;3.83;;;;;;;-144.73;100.00;54649.91;4971504;28;20027;-73
2023/10/12 06:03:07;;;;;;;30.23;4.32;;;;;;;-144.73;100.00;54658.13;4962619;28;20419;-74
2023/10/12 06:05:34;;;;;;;23.63;4.25;;;;;;;-144.73;100.00;54641.69;4964617;28;20121;-74
2023/10/12 06:08:03;;;;;;;32.75;5.03;;;;;;;-144.73;100.00;54617.06;4973316;28;20029;-74
2023/10/12 06:10:29;;;;;;;30.60;5.38;;;;;;;-144.73;100.00;54604.75;4975444;28;20018;-74
2023/10/12 06:12:56;;;;;;;35.40;5.05;;;;;;;-144.73;100.00;54612.97;4975740;28;20030;-74
2023/10/12 06:15:25;;;;;;;41.15;5.55;;;;;;;-144.73;100.00;54604.75;4975217;28;20022;-73
2023/10/12 06:17:51;;;;;;;31.67;4.10;;;;;;;-144.73;100.00;54633.47;4975104;28;20030;-74
2023/10/12 06:20:30;;;;;;;42.17;5.70;;;;;;;-144.73;100.00;54584.22;4989335;28;20040;-73
2023/10/12 06:22:56;;;;;;;25.83;4.30;;;;;;;-144.73;100.00;54596.53;4971357;28;20163;-72
2023/10/12 06:25:21;;;;;;;40.50;4.32;;;;;;;-144.73;100.00;54600.63;4942447;28;20122;-72
2023/10/12 06:27:50;;;;;;;30.40;4.68;;;;;;;-144.73;100.00;54633.47;4969818;28;20381;-71
2023/10/12 06:30:23;;;;;;;26.38;5.00;;;;;;;-144.73;100.00;54658.13;4952135;28;20035;-72
2023/10/12 06:32:49;;;;;;;29.30;3.42;;;;;;;-144.73;100.00;54604.75;4952663;28;20106;-74
2023/10/12 06:35:24;;;;;;;26.45;4.53;;;;;;;-144.73;100.00;54641.69;4952417;28;20059;-72
2023/10/12 06:38:15;;;;;;;23.50;4.55;;;;;;;-144.73;100.00;54610.91;4951223;28;20027;-73
2023/10/12 06:40:37;;;;;;;33.58;6.75;;;;;;;-144.73;100.00;54610.91;4975851;28;20030;-74
2023/10/12 06:45:54;;;;;;;32.47;5.07;;;;;;;-144.73;100.00;54625.28;4988235;28;20080;-73
2023/10/12 06:51:02;;;;;;;30.58;4.70;;;;;;;-144.73;100.00;54612.97;4987718;28;20034;-73
2023/10/12 06:53:40;;;;;;;24.20;4.60;;;;;;;-144.73;100.00;54641.69;4971147;28;20117;-74
2023/10/12 07:04:19;;;;;;;32.45;4.93;;;;;;;-144.73;100.00;54654.00;4988724;28;20026;-73
2023/10/12 07:06:59;;;;;;;28.67;4.22;;;;;;;-144.73;100.00;54600.63;4971971;28;20078;-73
2023/10/12 07:09:38;;;;;;;32.28;4.90;;;;;;;-144.73;100.00;54596.53;4970949;28;20192;-73
2023/10/12 07:12:12;;;;;;;24.40;4.80;;;;;;;-144.73;100.00;54576.00;4970848;28;20022;-72
2023/10/12 07:14:43;;;;;;;33.83;5.00;;;;;;;-144.73;100.00;54635.53;4970346;28;20464;-73
2023/10/12 07:17:09;;;;;;;32.85;4.22;;;;;;;-144.73;100.00;54604.75;4970422;28;20064;-73
2023/10/12 07:19:35;;;;;;;32.33;4.20;;;;;;;-144.73;100.00;54612.97;4970957;28;20505;-73
2023/10/12 07:22:08;;;;;;;27.60;5.03;;;;;;;-144.73;100.00;54596.53;4970401;28;20473;-72
2023/10/12 07:24:34;;;;;;;27.27;4.20;;;;;;;-144.73;100.00;54625.28;4969970;28;20031;-73
2023/10/12 07:27:11;;;;;;;27.45;5.00;;;;;;;-144.73;100.00;54625.28;4970591;28;20022;-73
2023/10/12 07:29:37;;;;;;;24.73;4.20;;;;;;;-144.73;100.00;54580.13;4969753;28;20034;-73
2023/10/12 07:34:57;;;;;;;31.90;5.75;;;;;;;-144.73;100.00;54596.53;4964021;28;20397;-73
2023/10/12 07:37:22;;;;;;;30.88;5.57;;;;;;;-144.73;100.00;54637.59;4970638;28;20026;-73
2023/10/12 07:39:51;;;;;;;28.30;4.80;;;;;;;-144.73;100.00;54565.75;4970422;28;20531;-73
2023/10/12 07:42:25;;;;;;;31.38;4.97;;;;;;;-144.73;100.00;54600.63;4970859;28;20418;-73
2023/10/12 07:44:54;;;;;;;33.67;4.50;;;;;;;-144.73;100.00;54660.16;4970125;28;20164;-73
2023/10/12 07:47:32;;;;;;;42.15;5.50;;;;;;;-144.73;100.00;54621.16;4970286;28;20026;-75
2023/10/12 07:50:06;;;;;;;21.58;4.32;;;;;;;-144.73;100.00;54625.28;4970124;28;20179;-71
2023/10/12 07:55:18;;;;;;;22.70;4.18;;;;;;;-144.73;100.00;54654.00;4956070;28;20031;-73
2023/10/12 07:57:47;;;;;;;25.60;4.63;;;;;;;-144.73;100.00;54629.38;4970905;28;20053;-73
2023/10/12 08:07:59;;;;;;;20.33;4.22;;;;;;;-144.73;100.00;54612.97;4987286;28;20026;-73
2023/10/12 08:21:25;;;;;;;23.40;3.60;;;;;;;-144.73;100.00;54625.28;4986780;28;20556;-73
2023/10/12 08:31:46;;;;;;;35.25;4.05;;;;;;;-144.73;100.00;54617.06;4988456;28;20019;-74
2023/10/12 08:34:41;;;;;;;22.17;3.95;;;;;;;-144.73;100.00;54576.00;4971248;28;20087;-74
2023/10/12 08:40:27;;;;;;;28.95;4.25;;;;;;;-144.73;100.00;54600.63;4988225;28;20042;-75
2023/10/12 08:42:37;;;;;;;34.88;4.43;;;;;;;-144.73;100.00;54563.69;4978062;28;20038;-73
2023/10/12 08:45:15;;;;;;;22.90;4.10;;;;;;;-144.73;100.00;54563.69;4970898;28;20043;-73
2023/10/12 08:47:48;;;;;;;20.98;4.55;;;;;;;-144.73;100.00;54604.75;4971776;28;20037;-73
2023/10/12 08:51:08;;;;;;;25.35;3.65;;;;;;;-144.73;100.00;54598.59;4967770;28;20069;-71
2023/10/12 08:53:03;;;;;;;25.52;4.10;;;;;;;-144.73;100.00;54588.31;4977996;28;20035;-71
2023/10/12 08:55:31;;;;;;;23.50;4.38;;;;;;;-144.73;100.00;54580.13;4958740;28;20030;-71
2023/10/12 08:58:18;;;;;;;26.48;3.95;;;;;;;-144.73;100.00;54567.81;4964331;28;20018;-71
2023/10/12 09:03:25;;;;;;;29.45;4.32;;;;;;;-144.73;100.00;54621.16;4982237;28;20041;-71
2023/10/12 09:05:51;;;;;;;19.92;3.53;;;;;;;-144.73;100.00;54584.22;4966043;28;20461;-71
2023/10/12 09:13:24;;;;;;;29.38;3.47;;;;;;;-144.73;100.00;54580.13;4977293;28;20023;-72
2023/10/12 09:16:02;;;;;;;27.48;3.58;;;;;;;-144.73;100.00;54592.44;4961321;28;20046;-72
2023/10/12 09:18:43;;;;;;;32.58;3.90;;;;;;;-144.73;100.00;54604.75;4984683;28;20022;-72
2023/10/12 09:24:05;;;;;;;29.85;3.95;;;;;;;-144.73;100.00;54563.69;4972670;28;20441;-71
2023/10/12 09:26:32;;;;;;;26.27;4.15;;;;;;;-144.73;100.00;54551.38;4967577;28;20102;-71
2023/10/12 09:29:08;;;;;;;26.55;3.90;;;;;;;-144.73;100.00;54584.22;4961403;28;20023;-71
2023/10/12 09:36:37;;;;;;;24.42;3.70;;;;;;;-144.73;100.00;54604.75;4977657;28;20055;-71
2023/10/12 09:39:11;;;;;;;21.58;5.20;;;;;;;-144.73;100.00;54625.28;4961578;28;20116;-72
2023/10/12 09:41:54;;;;;;;27.27;4.25;;;;;;;-144.73;100.00;54576.00;4965529;28;20080;-72
2023/10/12 09:44:26;;;;;;;22.75;3.30;;;;;;;-144.73;100.00;54553.44;4963091;28;20023;-72
2023/10/12 09:46:55;;;;;;;19.75;4.28;;;;;;;-144.73;100.00;54610.91;5004135;28;20063;-72
2023/10/12 09:49:22;;;;;;;15.38;2.88;;;;;;;-144.73;100.00;54606.78;4969956;28;20030;-72
2023/10/12 09:52:00;;;;;;;21.17;3.35;;;;;;;-144.73;100.00;54610.91;4981450;28;20072;-72
2023/10/12 09:54:48;;;;;;;23.70;3.65;;;;;;;-144.73;100.00;54580.13;4956632;28;20031;-71
2023/10/12 09:57:25;;;;;;;22.77;3.65;;;;;;;-144.73;100.00;54551.38;4984138;28;20027;-72
2023/10/12 09:59:53;;;;;;;17.08;3.80;;;;;;;-144.73;100.00;54551.38;4972669;28;20042;-72
2023/10/12 10:02:28;;;;;;;20.95;3.47;;;;;;;-144.73;100.00;54612.97;4970985;28;20046;-72
2023/10/12 10:05:11;;;;;;;21.00;3.38;;;;;;;-144.73;100.00;54588.31;4964663;28;20038;-72
2023/10/12 10:07:53;;;;;;;18.08;3.08;;;;;;;-144.73;100.00;54571.91;4963880;28;20026;-72
2023/10/12 10:10:33;;;;;;;26.65;3.90;;;;;;;-144.73;100.00;54573.97;4969711;28;20050;-72
2023/10/12 10:13:03;;;;;;;24.17;4.00;;;;;;;-144.73;100.00;54584.22;4983735;28;20035;-72
2023/10/12 10:15:37;;;;;;;19.75;3.33;;;;;;;-144.73;100.00;54602.69;4972340;28;20026;-72
2023/10/12 10:18:14;;;;;;;24.75;4.07;;;;;;;-144.73;100.00;54555.47;4955419;28;20038;-72
2023/10/12 10:20:46;;;;;;;17.00;2.83;;;;;;;-144.73;100.00;54576.00;4964381;28;20041;-73
2023/10/12 10:23:14;;;;;;;31.75;4.25;;;;;;;-144.73;100.00;54539.06;4964659;28;20529;-71
2023/10/12 10:25:45;;;;;;;26.40;3.05;;;;;;;-144.73;100.00;54551.38;4958291;28;20244;-71
2023/10/12 10:28:23;;;;;;;24.55;3.90;;;;;;;-144.73;100.00;54580.13;4973711;28;20027;-71
2023/10/12 10:30:50;;;;;;;37.78;3.60;;;;;;;-144.73;100.00;54586.28;4965501;28;20100;-71
2023/10/12 10:33:22;;;;;;;31.77;3.58;;;;;;;-144.73;100.00;54576.00;4975031;28;20064;-71
2023/10/12 10:35:58;;;;;;;23.17;3.50;;;;;;;-144.73;100.00;54592.44;4955051;28;20042;-71
2023/10/12 10:38:30;;;;;;;30.38;4.63;;;;;;;-144.73;100.00;54576.00;4994195;28;20031;-72
2023/10/12 10:41:05;;;;;;;14.40;3.63;;;;;;;-144.73;100.00;54539.06;4962541;28;20050;-72
2023/10/12 10:43:31;;;;;;;20.77;3.30;;;;;;;-144.73;100.00;54576.00;4978893;28;20033;-72
2023/10/12 10:45:57;;;;;;;25.08;3.70;;;;;;;-144.73;100.00;54543.16;4987416;28;20034;-71
2023/10/12 10:48:23;;;;;;;28.00;4.43;;;;;;;-144.73;100.00;54551.38;4976840;28;20023;-72
2023/10/12 10:50:51;;;;;;;23.60;3.70;;;;;;;-144.73;100.00;54555.47;4973187;28;20038;-71
2023/10/12 10:53:20;;;;;;;18.17;3.45;;;;;;;-144.73;100.00;54588.31;4965405;28;20023;-71
2023/10/12 10:55:50;;;;;;;19.00;3.40;;;;;;;-144.73;100.00;54604.75;4956221;28;20042;-71
2023/10/12 10:58:18;;;;;;;26.10;3.50;;;;;;;-144.73;100.00;54580.13;4978994;28;20438;-71
2023/10/12 11:00:56;;;;;;;17.40;2.88;;;;;;;-144.73;100.00;54604.75;4964995;28;20069;-72
2023/10/12 11:03:22;;;;;;;25.27;3.60;;;;;;;-144.73;100.00;54567.81;4975164;28;20018;-72
2023/10/12 11:05:48;;;;;;;15.18;3.00;;;;;;;-144.73;97.04;54588.31;4963999;28;20177;-72
2023/10/12 11:08:26;;;;;;;30.42;3.40;;;;;;;-144.73;98.92;54580.13;4970880;28;20112;-71
2023/10/12 11:13:38;;;;;;;16.98;3.22;;;;;;;-144.73;94.05;54596.53;4972175;28;20243;-72
2023/10/12 11:16:20;;;;;;;14.30;3.42;;;;;;;-144.73;93.73;54543.16;4970008;28;20045;-72
2023/10/12 11:18:52;;;;;;;13.77;2.92;;;;;;;-144.73;94.31;54571.91;4958935;28;20114;-72
2023/10/12 11:21:20;;;;;;;;;;;;;;;-144.73;90.46;54543.16;4958507;28;20038;-71
2023/10/12 11:23:46;;;;;;;24.20;3.03;;;;;;;-144.73;89.35;54539.06;4979306;28;20425;-72
2023/10/12 11:26:18;;;;;;;20.75;2.78;;;;;;;-144.73;90.79;54571.91;4960902;28;20042;-72
2023/10/12 11:28:45;;;;;;;20.13;3.67;;;;;;;-144.73;92.38;54584.22;4969003;28;20026;-72
2023/10/12 11:31:20;;;;;;;17.48;3.45;;;;;;;-144.73;89.02;54522.63;4971552;28;20035;-72
2023/10/12 11:33:49;;;;;;;23.08;3.40;;;;;;;-144.73;88.84;54522.63;4973872;28;20076;-72
2023/10/12 11:36:25;;;;;;;18.98;3.30;;;;;;;-144.73;88.83;54559.59;4957935;28;20035;-71
2023/10/12 11:39:10;;;;;;;19.25;3.28;;;;;;;-144.73;89.10;54563.69;4978202;28;20026;-72
2023/10/12 11:41:36;;;;;;;23.45;3.33;;;;;;;-144.73;90.57;54563.69;4976161;28;20076;-72
2023/10/12 11:44:05;;;;;;;23.60;3.72;;;;;;;-144.73;87.20;54547.28;4962630;28;20034;-72
2023/10/12 11:46:43;;;;;;;18.67;3.33;;;;;;;-144.73;89.08;54559.59;4978766;28;20060;-72
2023/10/12 11:49:10;;;;;;;20.65;3.15;;;;;;;-144.73;86.96;54578.06;4955941;28;20026;-72
2023/10/12 11:51:51;;;;;;;25.60;3.80;;;;;;;-144.73;84.53;54539.06;4982053;28;20068;-72
2023/10/12 11:54:20;;;;;;;15.05;3.10;;;;;;;-144.73;88.59;54567.81;4970768;28;20227;-71
2023/10/12 11:56:49;;;;;;;23.35;3.45;;;;;;;-144.73;85.28;54584.22;4964426;28;20034;-72
2023/10/12 11:59:22;;;;;;;18.83;2.92;;;;;;;-144.73;89.26;54551.38;4963951;28;20069;-72
2023/10/12 12:01:54;;;;;;;12.90;2.92;;;;;;;-144.73;85.48;54551.38;4956541;28;20031;-72
2023/10/12 12:04:26;;;;;;;21.42;3.58;;;;;;;-144.73;86.22;54559.59;4985662;28;20477;-72
2023/10/12 12:06:53;;;;;;;16.77;3.08;;;;;;;-144.73;87.20;54602.69;4972681;28;20033;-71
2023/10/12 12:09:22;;;;;;;12.98;3.10;;;;;;;-144.73;83.83;54555.47;4968403;28;20473;-71
2023/10/12 12:11:48;;;;;;;22.55;3.50;;;;;;;-144.73;86.17;54539.06;4983300;28;20053;-71
2023/10/12 12:14:16;;;;;;;13.02;2.78;;;;;;;-144.73;85.96;54563.69;4966377;28;20023;-72
2023/10/12 12:16:42;;;;;;;24.95;2.63;;;;;;;-144.73;86.00;54539.06;4975086;28;20037;-72
2023/10/12 12:19:14;;;;;;;25.40;3.25;;;;;;;-144.73;87.06;54543.16;4959516;28;20080;-71
2023/10/12 12:21:42;;;;;;;17.00;3.35;;;;;;;-144.73;88.11;54559.59;4986311;28;20033;-72
2023/10/12 12:24:24;;;;;;;21.92;3.42;;;;;;;-144.73;84.06;54551.38;4957174;28;20031;-71
2023/10/12 12:26:51;;;;;;;16.63;3.03;;;;;;;-144.73;83.62;54516.47;4982313;28;20034;-71
2023/10/12 12:29:21;;;;;;;17.67;2.90;;;;;;;-144.73;80.62;54539.06;4978335;28;20026;-72
2023/10/12 12:31:51;;;;;;;17.27;2.75;;;;;;;-144.73;80.84;54539.06;4974904;28;20086;-72
2023/10/12 12:37:04;;;;;;;17.50;2.72;;;;;;;-144.73;81.38;54539.06;4982693;28;20080;-71
2023/10/12 12:39:33;;;;;;;23.77;3.22;;;;;;;-144.73;82.85;54571.91;4961863;28;20393;-72
2023/10/12 12:41:58;;;;;;;27.30;3.08;;;;;;;-144.73;85.60;54551.38;4961903;28;20033;-72
2023/10/12 12:44:24;;;;;;;15.90;2.95;;;;;;;-144.73;85.11;54547.28;4984119;28;20058;-72
2023/10/12 12:46:49;;;;;;;18.55;2.72;;;;;;;-144.73;80.43;54543.16;4959651;28;20074;-72
2023/10/12 12:49:15;;;;;;;23.75;4.32;;;;;;;-144.73;78.52;54506.22;4978303;28;20091;-72
2023/10/12 12:51:40;;;;;;;15.57;3.05;;;;;;;-144.73;76.93;54543.16;4978798;28;20535;-71
2023/10/12 12:54:07;;;;;;;16.85;2.97;;;;;;;-144.73;81.43;54547.28;4961971;28;20030;-72
2023/10/12 12:56:32;;;;;;;12.15;2.67;;;;;;;-144.73;83.35;54547.28;4967152;28;20026;-72
2023/10/12 12:58:57;;;;;;;29.92;4.60;;;;;;;-144.73;87.77;54522.63;4962340;28;20018;-72
2023/10/12 13:01:23;;;;;;;24.52;3.38;;;;;;;-144.73;88.16;54518.53;4976573;28;20127;-71
2023/10/12 13:03:55;;;;;;;14.18;2.50;;;;;;;-144.73;89.60;54543.16;4986908;28;20026;-72
2023/10/12 13:06:20;;;;;;;;;;;;;;;-144.73;90.44;54551.38;5020693;28;20050;-72
2023/10/12 13:08:45;;;;;;;21.02;3.70;;;;;;;-144.73;92.60;54584.22;4972670;28;19920;-71
2023/10/12 13:11:16;;;;;;;20.70;3.28;;;;;;;-144.73;93.02;54508.28;4978729;28;20039;-71
2023/10/12 13:13:41;;;;;;;24.35;3.78;;;;;;;-144.73;89.64;54604.75;4973474;28;20038;-72
2023/10/12 13:16:12;;;;;;;28.30;3.35;;;;;;;-144.73;88.06;54530.84;4977576;28;20396;-71
2023/10/12 13:18:38;;;;;;;15.95;2.95;;;;;;;-144.73;88.50;54502.13;4976879;28;20054;-72
2023/10/12 13:21:07;;;;;;;14.30;2.45;;;;;;;-144.73;88.14;54543.16;4988135;28;20038;-72
2023/10/12 13:23:33;;;;;;;33.42;4.13;;;;;;;-144.73;86.50;54567.81;4961981;28;20030;-72
2023/10/12 13:26:09;;;;;;;20.00;3.33;;;;;;;-144.73;84.30;54584.22;4975797;28;20104;-72